Time;durP1;ratioP1;P1;durP2;ratioP2;P2;SDS_P1;SDS_P2;PMS_P1;PMS_P2;Temp;Humidity;BMP_temperature;BMP_pressure;BME280_temperature;BME280_humidity;BME280_pressure;Samples;Min_cycle;Max_cycle;Signal;HPM_P1;HPM_P2
2023/04/16 01:02:50;;;;;;;10.93;3.95;;;9.90;99.90;;;;;;4934070;29;20095;-91
2023/04/16 01:16:18;;;;;;;9.82;2.75;;;9.80;99.90;;;;;;4934315;29;20537;-93
2023/04/16 01:37:41;;;;;;;6.07;2.60;;;9.90;99.90;;;;;;4841740;29;20033;-93
2023/04/16 02:17:15;;;;;;;;;;;;;;;;;;;;;
2023/04/16 02:20:31;;;;;;;9.38;4.20;;;9.30;99.90;;;;;;4773729;29;20035;-93
2023/04/16 02:24:01;;;;;;;;;;;;;;;;;;;;;
2023/04/16 02:26:32;;;;;;;12.07;4.70;;;9.60;99.90;;;;;;4791340;29;20107;-92
2023/04/16 02:29:43;;;;;;;13.95;5.90;;;9.90;99.90;;;;;;4805587;29;20038;-91
2023/04/16 02:33:10;;;;;;;7.78;5.35;;;9.10;99.90;;;;;;4752414;30;20048;-93
2023/04/16 02:39:34;;;;;;;15.88;7.65;;;9.90;99.90;;;;;;4833298;29;20048;-92
2023/04/16 02:45:37;;;;;;;;;;;;;;;;;;;;;
2023/04/16 02:52:41;;;;;;;18.58;7.80;;;10.00;99.90;;;;;;4929707;29;20058;-94
2023/04/16 03:13:20;;;;;;;22.05;7.45;;;10.70;99.90;;;;;;4696507;30;20060;-93
2023/04/16 03:46:49;;;;;;;15.50;5.20;;;8.90;99.90;;;;;;4635380;30;20183;-88
2023/04/16 03:57:43;;;;;;;12.27;4.75;;;9.90;99.90;;;;;;4723057;30;20060;-93
2023/04/16 04:07:47;;;;;;;;;;;;;;;;;;;;;
2023/04/16 04:19:53;;;;;;;;;;;;;;;;;;;;;
2023/04/16 05:33:12;;;;;;;;;;;;;;;;;;;;;
2023/04/16 07:10:27;;;;;;;24.83;8.55;;;9.70;99.90;;;;;;4824994;29;20102;-92
2023/04/16 07:13:05;;;;;;;24.90;9.32;;;10.40;99.90;;;;;;4825566;29;20121;-92
2023/04/16 08:00:44;;;;;;;21.00;9.98;;;9.90;99.90;;;;;;5012268;28;20049;-90
2023/04/16 08:03:49;;;;;;;;;;;;;;;;;;;;;
2023/04/16 08:07:10;;;;;;;;;;;;;;;;;;;;;
2023/04/16 08:11:18;;;;;;;20.30;10.20;;;9.90;99.90;;;;;;4958550;28;20054;-92
2023/04/16 08:13:42;;;;;;;25.75;10.27;;;9.90;99.90;;;;;;4905716;29;20477;-92
2023/04/16 08:20:07;;;;;;;22.08;9.70;;;9.10;99.90;;;;;;4860417;29;20042;-93
2023/04/16 08:30:47;;;;;;;;;;;;;;;;;;;;;
2023/04/16 08:36:30;;;;;;;32.10;11.10;;;10.00;99.90;;;;;;4786655;29;20116;-91
2023/04/16 08:40:08;;;;;;;28.58;11.15;;;9.30;99.90;;;;;;4845946;29;20098;-93
2023/04/16 08:42:55;;;;;;;24.48;10.93;;;10.10;99.90;;;;;;4766755;30;20040;-92
2023/04/16 08:45:25;;;;;;;30.33;10.70;;;10.10;99.90;;;;;;4784231;30;20488;-91
2023/04/16 08:47:57;;;;;;;;;;;11.30;99.90;;;;;;4810331;29;20527;-91
2023/04/16 09:18:19;;;;;;;;;;;;;;;;;;;;;
2023/04/16 09:27:53;;;;;;;29.40;12.52;;;9.50;99.90;;;;;;4868134;29;20176;-89
2023/04/16 09:33:21;;;;;;;22.15;10.57;;;11.40;99.90;;;;;;5058641;23;20052;-91
2023/04/16 09:35:49;;;;;;;16.70;10.13;;;11.30;99.90;;;;;;4971833;28;20031;-91
2023/04/16 09:41:39;;;;;;;21.58;10.95;;;10.10;99.90;;;;;;4973704;28;20072;-91
2023/04/16 09:47:50;;;;;;;19.17;11.60;;;10.40;99.90;;;;;;4971923;28;20046;-93
2023/04/16 09:51:11;;;;;;;19.05;11.35;;;11.20;99.90;;;;;;4975353;28;20077;-93
2023/04/16 10:03:43;;;;;;;21.55;10.43;;;10.20;99.90;;;;;;4976446;28;20145;-93
2023/04/16 10:12:07;;;;;;;25.02;12.73;;;10.60;99.90;;;;;;5243083;23;20070;-89
2023/04/16 10:14:50;;;;;;;25.13;13.32;;;10.50;99.90;;;;;;4996288;28;20466;-90
2023/04/16 10:17:16;;;;;;;28.88;15.02;;;11.70;99.90;;;;;;4993940;28;20019;-88
2023/04/16 10:19:43;;;;;;;28.90;14.82;;;11.50;99.90;;;;;;4996294;28;20023;-91
2023/04/16 10:25:28;;;;;;;37.38;14.75;;;10.50;99.90;;;;;;4927264;29;20096;-92
2023/04/16 10:28:07;;;;;;;27.35;14.60;;;11.50;99.90;;;;;;4927606;29;20083;-93
2023/04/16 10:34:17;;;;;;;25.30;13.80;;;11.40;99.90;;;;;;4995291;28;20484;-93
2023/04/16 10:36:57;;;;;;;22.40;12.45;;;10.50;99.90;;;;;;4992268;28;20058;-92
2023/04/16 10:39:26;;;;;;;24.30;12.55;;;11.60;99.90;;;;;;4999234;28;20048;-90
2023/04/16 10:42:24;;;;;;;19.25;12.90;;;11.80;99.90;;;;;;4997589;28;20034;-93
2023/04/16 10:44:50;;;;;;;25.35;12.52;;;11.10;99.90;;;;;;4952765;28;20121;-91
2023/04/16 10:47:28;;;;;;;27.70;13.55;;;12.10;99.90;;;;;;4995410;28;20541;-91
2023/04/16 10:49:53;;;;;;;23.02;11.90;;;11.50;99.90;;;;;;4996929;28;20045;-91
2023/04/16 10:52:31;;;;;;;21.50;12.30;;;11.90;99.90;;;;;;4995980;28;20027;-91
2023/04/16 10:55:16;;;;;;;23.08;12.68;;;11.70;99.90;;;;;;4993989;28;20030;-91
2023/04/16 10:57:48;;;;;;;20.02;12.15;;;12.10;99.90;;;;;;4995374;28;20110;-91
2023/04/16 11:00:23;;;;;;;21.38;12.48;;;11.30;99.90;;;;;;4995111;28;20030;-90
2023/04/16 11:02:54;;;;;;;21.63;12.00;;;10.80;99.90;;;;;;4996045;28;20478;-92
2023/04/16 11:08:18;;;;;;;22.95;13.05;;;10.80;99.90;;;;;;4985206;28;20041;-91
2023/04/16 11:11:33;;;;;;;20.58;13.25;;;10.70;99.90;;;;;;4985126;28;20046;-91
2023/04/16 11:13:59;;;;;;;21.67;13.52;;;10.70;99.90;;;;;;5004286;23;20053;-92
2023/04/16 11:16:25;;;;;;;22.73;12.35;;;11.10;99.90;;;;;;4994985;28;20058;-91
2023/04/16 11:18:51;;;;;;;22.08;13.57;;;10.80;99.90;;;;;;4994522;28;20049;-90
2023/04/16 11:21:25;;;;;;;23.20;12.00;;;10.80;99.90;;;;;;4992994;28;20080;-93
2023/04/16 11:23:53;;;;;;;26.35;13.65;;;10.70;99.90;;;;;;4992795;28;20513;-91
2023/04/16 11:26:39;;;;;;;23.05;13.02;;;11.70;99.90;;;;;;4992442;28;20022;-91
2023/04/16 11:29:14;;;;;;;28.23;13.20;;;11.10;99.90;;;;;;4990742;28;20106;-92
2023/04/16 11:31:53;;;;;;;23.77;13.68;;;10.80;99.90;;;;;;4993388;28;20113;-92
2023/04/16 11:34:25;;;;;;;23.05;14.63;;;10.80;99.90;;;;;;5006500;28;20910;-91
2023/04/16 11:36:51;;;;;;;27.35;15.73;;;10.80;99.90;;;;;;4993571;28;20439;-91
2023/04/16 11:39:17;;;;;;;23.33;14.95;;;11.20;99.90;;;;;;4993973;28;20022;-90
2023/04/16 11:41:52;;;;;;;29.38;14.57;;;11.80;99.90;;;;;;4993964;28;20082;-89
2023/04/16 11:44:24;;;;;;;20.92;12.65;;;11.80;99.90;;;;;;4993619;28;20026;-91
2023/04/16 11:46:55;;;;;;;22.40;13.43;;;12.10;99.90;;;;;;4990410;28;20027;-92
2023/04/16 11:49:28;;;;;;;28.42;12.70;;;11.10;99.90;;;;;;4994210;28;20080;-90
2023/04/16 11:52:00;;;;;;;21.85;12.23;;;11.90;99.90;;;;;;4994135;28;20026;-91
2023/04/16 11:54:50;;;;;;;25.15;13.25;;;10.80;99.90;;;;;;4993569;28;20041;-90
2023/04/16 11:57:26;;;;;;;32.03;13.88;;;10.40;99.90;;;;;;4991415;28;20022;-90
2023/04/16 11:59:56;;;;;;;23.25;12.93;;;11.50;99.90;;;;;;4994083;28;20038;-91
2023/04/16 12:02:45;;;;;;;27.23;13.13;;;11.50;99.90;;;;;;4990196;28;20038;-90
2023/04/16 12:05:39;;;;;;;26.95;14.75;;;10.80;99.90;;;;;;4990056;28;20269;-90
2023/04/16 12:08:27;;;;;;;27.55;14.63;;;10.60;99.90;;;;;;4990419;28;20034;-92
2023/04/16 12:11:05;;;;;;;32.75;14.38;;;10.80;99.90;;;;;;4996275;28;20027;-91
2023/04/16 12:17:23;;;;;;;21.50;12.93;;;11.90;99.90;;;;;;4994652;28;20109;-91
2023/04/16 12:19:58;;;;;;;24.48;12.13;;;11.00;99.90;;;;;;4992332;28;20034;-92
2023/04/16 12:22:38;;;;;;;26.25;12.73;;;11.00;99.90;;;;;;4994376;28;20088;-92
2023/04/16 12:25:10;;;;;;;20.10;12.00;;;11.70;99.90;;;;;;4994237;28;20023;-91
2023/04/16 12:27:50;;;;;;;20.40;12.82;;;10.90;99.90;;;;;;4993058;28;20324;-91
2023/04/16 12:30:59;;;;;;;24.70;12.82;;;12.20;99.90;;;;;;4959261;28;20035;-91
2023/04/16 12:33:37;;;;;;;20.90;14.20;;;11.90;99.90;;;;;;4982282;28;20042;-90
2023/04/16 12:36:18;;;;;;;23.60;14.25;;;12.10;99.90;;;;;;4993713;28;20027;-92
2023/04/16 12:38:44;;;;;;;27.73;14.82;;;10.90;99.90;;;;;;4993677;28;20073;-94
2023/04/16 12:41:25;;;;;;;22.52;13.90;;;11.50;99.90;;;;;;4993442;28;20442;-92
2023/04/16 12:51:07;;;;;;;19.35;13.77;;;10.20;99.90;;;;;;4878974;29;20040;-90
2023/04/16 12:54:33;;;;;;;;;;;;;;;;;;;;;
2023/04/16 12:56:59;;;;;;;27.10;12.95;;;11.90;99.90;;;;;;5385267;23;20056;-93
2023/04/16 12:59:25;;;;;;;23.73;13.57;;;11.30;99.90;;;;;;4996482;28;20078;-91
2023/04/16 13:01:56;;;;;;;25.75;12.70;;;11.60;99.90;;;;;;4995398;28;20126;-92
2023/04/16 13:04:56;;;;;;;20.88;12.68;;;11.80;99.90;;;;;;4996511;28;20026;-92
2023/04/16 13:22:47;;;;;;;24.70;14.38;;;11.20;99.90;;;;;;5005034;28;20524;-90
2023/04/16 13:25:22;;;;;;;28.38;13.45;;;12.10;99.90;;;;;;5010877;28;20886;-91
2023/04/16 13:27:52;;;;;;;29.30;15.23;;;11.70;99.90;;;;;;5009026;28;20023;-92
2023/04/16 13:41:50;;;;;;;25.25;13.75;;;11.40;99.90;;;;;;4908650;22;20059;-91
2023/04/16 13:44:15;;;;;;;26.50;13.90;;;11.40;99.90;;;;;;4956090;29;20052;-90
2023/04/16 13:46:46;;;;;;;19.75;11.88;;;11.40;99.90;;;;;;4957976;29;20027;-91
2023/04/16 13:49:18;;;;;;;24.42;12.65;;;11.40;99.90;;;;;;4952566;29;20031;-93
2023/04/16 13:52:30;;;;;;;27.20;13.73;;;12.70;99.90;;;;;;4957534;29;20035;-94
2023/04/16 13:54:57;;;;;;;22.98;13.10;;;11.40;99.90;;;;;;4954976;28;20035;-95
2023/04/16 13:58:06;;;;;;;25.30;13.38;;;11.40;99.90;;;;;;4957567;29;20058;-94
2023/04/16 14:00:37;;;;;;;26.52;13.60;;;11.40;99.90;;;;;;4955798;29;20039;-92
2023/04/16 14:03:15;;;;;;;20.58;13.05;;;11.00;99.90;;;;;;4956647;29;20106;-94
2023/04/16 14:06:48;;;;;;;;;;;;;;;;;;;;;
2023/04/16 14:15:58;;;;;;;19.73;13.43;;;11.60;99.90;;;;;;5124445;23;20098;-92
2023/04/16 14:18:40;;;;;;;23.33;13.90;;;11.50;99.90;;;;;;4956513;29;20019;-91
2023/04/16 14:21:59;;;;;;;25.85;13.85;;;11.90;99.90;;;;;;4972437;28;20039;-93
2023/04/16 14:24:25;;;;;;;20.17;14.07;;;11.50;99.90;;;;;;4950274;28;20039;-89
2023/04/16 14:26:50;;;;;;;28.92;14.43;;;11.60;99.90;;;;;;4954687;29;20041;-88
2023/04/16 14:29:16;;;;;;;29.52;13.68;;;11.60;99.90;;;;;;4953560;29;20107;-92
2023/04/16 14:31:42;;;;;;;24.02;13.98;;;11.60;99.90;;;;;;4960431;28;20474;-93
2023/04/16 14:34:07;;;;;;;29.00;14.63;;;12.70;99.90;;;;;;4960455;28;20504;-91
2023/04/16 14:36:34;;;;;;;23.05;14.38;;;11.60;99.90;;;;;;4961827;28;20087;-92
2023/04/16 14:40:07;;;;;;;22.20;14.35;;;11.60;99.90;;;;;;4962973;28;20450;-91
2023/04/16 14:42:38;;;;;;;22.92;14.65;;;11.60;99.90;;;;;;4971085;28;20042;-91
2023/04/16 14:45:16;;;;;;;29.15;15.02;;;10.90;99.90;;;;;;4956721;28;20109;-91
2023/04/16 14:47:46;;;;;;;24.77;14.70;;;11.70;99.90;;;;;;4973446;28;20019;-91
2023/04/16 14:50:24;;;;;;;32.42;14.00;;;12.50;99.90;;;;;;4964281;28;20039;-93
2023/04/16 14:52:55;;;;;;;28.92;15.90;;;12.50;99.90;;;;;;4969599;28;20035;-91
2023/04/16 14:55:37;;;;;;;33.28;16.33;;;12.50;99.90;;;;;;4953111;28;20019;-92
2023/04/16 14:58:17;;;;;;;30.58;17.20;;;11.30;99.90;;;;;;4974872;28;20085;-91
2023/04/16 15:00:48;;;;;;;35.60;19.38;;;12.40;99.90;;;;;;4969574;28;20082;-92
2023/04/16 15:06:30;;;;;;;38.22;18.77;;;11.60;99.90;;;;;;4968714;28;20035;-92
2023/04/16 15:08:56;;;;;;;41.45;18.95;;;12.50;99.90;;;;;;4977629;28;20106;-91
2023/04/16 15:11:29;;;;;;;40.00;19.80;;;11.80;99.90;;;;;;4977426;28;20046;-92
2023/04/16 15:14:06;;;;;;;34.28;19.52;;;12.00;99.90;;;;;;4973643;28;20074;-92
2023/04/16 15:16:47;;;;;;;29.23;18.17;;;10.70;99.90;;;;;;4953016;28;20463;-91
2023/04/16 15:19:16;;;;;;;;;;;12.20;99.90;;;;;;4961353;28;20060;-92
2023/04/16 15:21:47;;;;;;;38.88;19.23;;;11.00;99.90;;;;;;4957022;29;20011;-93
2023/04/16 15:24:19;;;;;;;36.25;18.90;;;12.40;99.90;;;;;;4953259;28;20028;-90
2023/04/16 15:27:01;;;;;;;37.95;19.20;;;12.60;99.90;;;;;;4956230;28;20026;-91
2023/04/16 15:29:27;;;;;;;41.85;20.23;;;12.80;99.90;;;;;;4966936;28;20443;-92
2023/04/16 15:31:52;;;;;;;37.40;20.38;;;12.10;99.90;;;;;;4964835;28;20031;-91
2023/04/16 15:34:18;;;;;;;35.20;18.88;;;12.10;99.90;;;;;;4967849;28;20027;-90
2023/04/16 15:36:49;;;;;;;36.60;18.85;;;12.60;99.90;;;;;;4960335;28;20062;-92
2023/04/16 15:39:33;;;;;;;39.40;20.90;;;13.00;99.90;;;;;;4967547;28;20393;-91
2023/04/16 15:42:00;;;;;;;45.45;19.92;;;11.20;99.90;;;;;;4954324;28;20046;-91
2023/04/16 15:44:35;;;;;;;32.67;19.60;;;11.60;99.90;;;;;;4984425;28;20027;-92
2023/04/16 15:47:16;;;;;;;32.20;20.48;;;12.60;99.90;;;;;;4956603;28;20031;-92
2023/04/16 15:49:50;;;;;;;41.67;19.65;;;12.50;99.90;;;;;;4959322;28;20038;-91
2023/04/16 15:52:22;;;;;;;32.17;19.40;;;11.60;99.90;;;;;;4956944;28;20032;-91
2023/04/16 15:54:48;;;;;;;26.15;18.17;;;11.60;99.90;;;;;;4970833;28;20027;-91
2023/04/16 15:57:22;;;;;;;33.03;18.70;;;12.40;99.90;;;;;;4963075;28;20034;-91
2023/04/16 16:00:12;;;;;;;41.45;18.77;;;12.50;99.90;;;;;;4965451;28;20024;-93
2023/04/16 16:02:42;;;;;;;34.28;19.20;;;11.70;99.90;;;;;;4959623;28;20035;-92
2023/04/16 16:05:17;;;;;;;42.28;18.25;;;12.70;99.90;;;;;;4969348;28;20055;-91
2023/04/16 16:07:43;;;;;;;32.28;18.27;;;11.60;99.90;;;;;;4970817;28;20047;-91
2023/04/16 16:10:11;;;;;;;34.22;18.60;;;11.60;99.90;;;;;;5021293;23;20059;-90
2023/04/16 16:12:38;;;;;;;35.40;18.75;;;11.60;99.90;;;;;;4964943;28;20027;-91
2023/04/16 16:15:05;;;;;;;30.83;18.38;;;11.60;99.90;;;;;;4963301;28;20113;-92
2023/04/16 16:17:30;;;;;;;37.75;18.17;;;11.70;99.90;;;;;;4969965;28;20034;-91
2023/04/16 16:19:57;;;;;;;34.42;18.98;;;11.70;99.90;;;;;;4960588;28;20032;-90
2023/04/16 16:22:23;;;;;;;32.42;18.92;;;11.70;99.90;;;;;;4968208;28;20038;-91
2023/04/16 16:24:52;;;;;;;33.95;16.45;;;11.80;99.90;;;;;;4958418;28;20031;-91
2023/04/16 16:27:18;;;;;;;28.08;17.13;;;11.80;99.90;;;;;;4955970;28;20039;-92
2023/04/16 16:29:44;;;;;;;32.15;17.52;;;12.30;99.90;;;;;;4964491;28;20027;-90
2023/04/16 16:32:23;;;;;;;38.80;18.48;;;12.00;99.90;;;;;;4966742;28;20030;-90
2023/04/16 16:34:48;;;;;;;29.40;16.48;;;11.80;99.90;;;;;;4969714;28;20046;-93
2023/04/16 16:37:14;;;;;;;26.88;17.05;;;12.60;99.90;;;;;;4959494;28;20471;-92
2023/04/16 16:39:39;;;;;;;34.00;17.80;;;11.70;99.90;;;;;;4968979;28;20130;-91
2023/04/16 16:42:07;;;;;;;32.22;17.15;;;11.70;99.90;;;;;;4961054;28;20031;-90
2023/04/16 16:44:33;;;;;;;33.63;17.48;;;11.70;99.90;;;;;;4966065;28;20410;-92
2023/04/16 16:47:07;;;;;;;33.80;17.05;;;11.70;99.90;;;;;;4965636;28;20027;-93
2023/04/16 16:49:54;;;;;;;35.05;17.75;;;11.70;99.90;;;;;;4961445;28;20065;-92
2023/04/16 16:52:25;;;;;;;33.00;16.98;;;12.50;99.90;;;;;;5028111;23;20542;-93
2023/04/16 16:54:55;;;;;;;39.15;17.60;;;12.30;99.90;;;;;;4974789;28;20445;-92
2023/04/16 16:57:22;;;;;;;33.88;17.02;;;13.60;99.90;;;;;;4972657;28;20061;-94
2023/04/16 16:59:49;;;;;;;36.90;17.92;;;12.30;99.90;;;;;;4972951;28;20490;-90
2023/04/16 17:02:52;;;;;;;31.38;16.73;;;11.60;99.90;;;;;;4977215;28;20035;-92
2023/04/16 17:06:03;;;;;;;35.30;18.05;;;11.50;99.90;;;;;;4973803;28;20073;-91
2023/04/16 17:08:31;;;;;;;43.50;18.48;;;11.60;99.90;;;;;;4928340;28;20032;-91
2023/04/16 17:11:06;;;;;;;35.42;17.30;;;12.00;99.90;;;;;;4914924;29;20068;-94
2023/04/16 17:13:43;;;;;;;41.72;17.67;;;12.90;99.90;;;;;;4973562;28;20035;-92
2023/04/16 17:16:16;;;;;;;40.97;18.00;;;11.80;99.90;;;;;;4979193;28;20348;-92
2023/04/16 17:18:54;;;;;;;47.00;18.13;;;11.60;99.90;;;;;;4978762;28;20022;-94
2023/04/16 17:21:57;;;;;;;36.58;15.60;;;11.40;99.90;;;;;;4974435;28;20039;-92
2023/04/16 17:24:34;;;;;;;35.92;17.45;;;12.60;99.90;;;;;;4929066;28;20032;-93
2023/04/16 17:27:11;;;;;;;36.97;16.50;;;11.00;99.90;;;;;;4987761;28;20113;-93
2023/04/16 17:29:43;;;;;;;35.40;16.05;;;11.50;99.90;;;;;;4975394;28;20446;-94
2023/04/16 17:32:15;;;;;;;34.33;16.60;;;11.50;99.90;;;;;;4979045;28;20027;-91
2023/04/16 17:35:25;;;;;;;;;;;;;;;;;;;;;
2023/04/16 17:37:53;;;;;;;27.13;16.33;;;10.70;99.90;;;;;;4951103;28;20394;-93
2023/04/16 17:40:45;;;;;;;42.40;16.98;;;11.70;99.90;;;;;;4974369;28;20035;-92
2023/04/16 17:43:17;;;;;;;33.83;17.52;;;11.50;99.90;;;;;;4963584;28;20054;-92
2023/04/16 17:45:54;;;;;;;34.17;18.67;;;11.70;99.90;;;;;;4958462;28;20138;-93
2023/04/16 17:51:43;;;;;;;32.55;17.83;;;11.50;99.90;;;;;;4964133;28;20430;-92
2023/04/16 17:54:12;;;;;;;34.78;18.50;;;11.60;99.90;;;;;;4956833;28;20043;-92
2023/04/16 17:56:47;;;;;;;36.78;18.20;;;12.20;99.90;;;;;;4955621;28;20059;-91
2023/04/16 18:02:39;;;;;;;33.13;17.95;;;12.50;99.90;;;;;;4954115;28;20054;-92
2023/04/16 18:05:08;;;;;;;35.70;20.98;;;11.50;99.90;;;;;;4955141;29;20042;-91
2023/04/16 18:07:43;;;;;;;34.65;19.98;;;11.50;99.90;;;;;;4954009;29;20497;-90
2023/04/16 18:10:09;;;;;;;27.15;17.15;;;11.50;99.90;;;;;;4954521;28;20039;-91
2023/04/16 18:12:34;;;;;;;32.33;17.65;;;11.40;99.90;;;;;;4954732;28;20078;-91
2023/04/16 18:15:00;;;;;;;30.60;19.25;;;11.90;99.90;;;;;;4954580;28;20038;-94
2023/04/16 18:17:32;;;;;;;34.35;18.85;;;11.40;99.90;;;;;;4954737;29;20070;-92
2023/04/16 18:19:57;;;;;;;40.53;19.63;;;11.70;99.90;;;;;;4981714;23;20050;-89
2023/04/16 18:22:28;;;;;;;32.65;18.25;;;12.30;99.90;;;;;;4993368;28;20133;-92
2023/04/16 18:25:08;;;;;;;42.88;18.67;;;11.30;99.90;;;;;;4995197;28;20022;-92
2023/04/16 18:27:49;;;;;;;38.78;19.80;;;11.30;99.90;;;;;;4998033;28;20031;-94
2023/04/16 18:30:17;;;;;;;;;;;12.40;99.90;;;;;;5006692;28;20086;-94
2023/04/16 18:32:46;;;;;;;42.97;21.08;;;11.30;99.90;;;;;;5009169;28;20008;-94
2023/04/16 18:35:23;;;;;;;39.42;21.95;;;10.90;99.90;;;;;;4997987;28;20026;-92
2023/04/16 18:37:55;;;;;;;43.35;22.10;;;12.20;99.90;;;;;;4997646;28;20034;-93
2023/04/16 18:40:28;;;;;;;43.17;22.65;;;12.00;99.90;;;;;;4997655;28;20049;-92
2023/04/16 18:42:59;;;;;;;40.47;23.92;;;11.40;99.90;;;;;;4997504;28;20116;-93
2023/04/16 18:45:24;;;;;;;46.13;25.77;;;12.10;99.90;;;;;;4997152;28;20023;-93
2023/04/16 18:47:58;;;;;;;44.70;25.17;;;11.30;99.90;;;;;;4997489;28;20026;-93
2023/04/16 18:50:33;;;;;;;44.28;25.38;;;11.70;99.90;;;;;;4996996;28;20049;-93
2023/04/16 18:52:59;;;;;;;47.33;25.70;;;12.20;99.90;;;;;;5000750;28;20242;-93
2023/04/16 18:55:28;;;;;;;50.85;26.33;;;11.00;99.90;;;;;;5012066;28;20025;-93
2023/04/16 18:57:54;;;;;;;49.33;26.30;;;11.30;99.90;;;;;;4999490;28;20041;-95
2023/04/16 19:00:22;;;;;;;46.92;26.95;;;11.80;99.90;;;;;;4998576;28;20035;-93
2023/04/16 19:02:48;;;;;;;41.95;24.33;;;10.30;99.90;;;;;;4997353;28;20038;-94
2023/04/16 19:05:23;;;;;;;52.58;27.17;;;12.00;99.90;;;;;;4999904;28;20371;-92
2023/04/16 19:07:48;;;;;;;49.28;25.92;;;11.20;99.90;;;;;;5000970;28;20050;-92
2023/04/16 19:10:14;;;;;;;47.65;24.77;;;11.90;99.90;;;;;;5002203;28;20026;-91
2023/04/16 19:12:49;;;;;;;44.45;24.80;;;12.10;99.90;;;;;;4997628;28;20023;-91
2023/04/16 19:15:35;;;;;;;50.30;26.13;;;12.00;99.90;;;;;;5002754;28;20026;-91
2023/04/16 19:18:09;;;;;;;48.75;24.80;;;11.20;99.90;;;;;;5005474;28;20026;-93
2023/04/16 19:20:36;;;;;;;43.80;24.92;;;12.30;99.90;;;;;;4996632;28;20054;-93
2023/04/16 19:23:04;;;;;;;53.28;25.20;;;11.90;99.90;;;;;;5008495;28;20049;-93
2023/04/16 19:25:35;;;;;;;49.67;26.15;;;11.80;99.90;;;;;;5005012;28;20034;-93
2023/04/16 19:28:50;;;;;;;50.03;26.60;;;12.10;99.90;;;;;;5001986;28;20026;-93
2023/04/16 19:31:16;;;;;;;41.38;26.05;;;11.10;99.90;;;;;;4978065;28;20084;-93
2023/04/16 19:33:44;;;;;;;47.83;25.85;;;11.20;99.90;;;;;;4997131;28;20085;-94
2023/04/16 19:37:02;;;;;;;47.85;27.02;;;11.50;99.90;;;;;;4997201;28;20026;-93
2023/04/16 19:39:30;;;;;;;49.90;26.92;;;11.10;99.90;;;;;;4993615;28;20054;-92
2023/04/16 19:41:56;;;;;;;49.92;28.65;;;11.80;99.90;;;;;;4999497;28;20138;-93
2023/04/16 19:44:22;;;;;;;49.88;27.00;;;11.80;99.90;;;;;;4997306;28;20038;-94
2023/04/16 19:46:47;;;;;;;50.10;27.58;;;11.00;99.90;;;;;;4998661;28;20026;-93
2023/04/16 19:49:20;;;;;;;48.42;28.35;;;11.10;99.90;;;;;;4997298;28;20030;-91
2023/04/16 19:51:52;;;;;;;49.60;28.95;;;12.00;99.90;;;;;;4995130;28;20030;-89
2023/04/16 19:54:23;;;;;;;51.28;29.25;;;11.80;99.90;;;;;;5011619;28;20006;-91
2023/04/16 19:56:52;;;;;;;47.35;27.95;;;11.30;99.90;;;;;;4999251;28;20038;-92
2023/04/16 19:59:19;;;;;;;49.05;27.90;;;11.00;99.90;;;;;;4996749;28;20015;-92
2023/04/16 20:01:45;;;;;;;50.80;27.80;;;11.00;99.90;;;;;;4999224;28;20045;-91
2023/04/16 20:04:10;;;;;;;49.75;28.92;;;12.00;99.90;;;;;;5005287;28;20026;-91
2023/04/16 20:06:36;;;;;;;54.45;29.33;;;11.00;99.90;;;;;;4996982;28;20559;-90
2023/04/16 20:09:02;;;;;;;67.30;30.10;;;11.00;99.90;;;;;;4995473;28;20037;-91
2023/04/16 20:11:27;;;;;;;51.70;29.90;;;10.90;99.90;;;;;;4995525;28;20486;-91
2023/04/16 20:13:53;;;;;;;52.00;28.58;;;10.90;99.90;;;;;;4995589;28;20029;-94
2023/04/16 20:16:22;;;;;;;51.50;29.27;;;10.90;99.90;;;;;;5007268;28;20117;-90
2023/04/16 20:18:47;;;;;;;62.83;29.58;;;10.90;99.90;;;;;;4995166;28;20097;-88
2023/04/16 20:21:13;;;;;;;49.88;28.65;;;10.90;99.90;;;;;;4994794;28;20474;-91
2023/04/16 20:23:40;;;;;;;55.65;30.17;;;10.90;99.90;;;;;;4995479;28;20088;-92
2023/04/16 20:26:05;;;;;;;54.58;30.55;;;10.90;99.90;;;;;;5002834;28;20080;-90
2023/04/16 20:28:31;;;;;;;52.30;30.00;;;10.90;99.90;;;;;;4993845;28;20034;-92
2023/04/16 20:30:57;;;;;;;53.25;28.35;;;10.90;99.90;;;;;;4997098;28;20123;-90
2023/04/16 20:33:23;;;;;;;50.08;24.45;;;10.90;99.90;;;;;;4996823;28;20029;-90
2023/04/16 20:35:50;;;;;;;46.83;24.77;;;10.90;99.90;;;;;;4998409;28;20030;-91
2023/04/16 20:38:22;;;;;;;49.63;24.17;;;10.90;99.90;;;;;;4995596;28;20022;-91
2023/04/16 20:41:04;;;;;;;36.50;23.08;;;10.80;99.90;;;;;;4995014;28;20026;-91
2023/04/16 20:43:36;;;;;;;44.28;24.85;;;10.80;99.90;;;;;;5008150;28;20022;-92
2023/04/16 20:46:03;;;;;;;45.67;25.77;;;10.80;99.90;;;;;;4996677;28;20033;-92
2023/04/16 20:48:28;;;;;;;43.30;23.02;;;10.80;99.90;;;;;;4994812;28;20026;-93
2023/04/16 20:51:01;;;;;;;52.60;26.55;;;10.70;99.90;;;;;;4999115;28;20065;-92
2023/04/16 20:53:27;;;;;;;42.63;24.05;;;10.80;99.90;;;;;;4995413;28;20371;-92
2023/04/16 20:55:53;;;;;;;49.03;25.33;;;10.70;99.90;;;;;;4984931;28;20042;-91
2023/04/16 20:58:21;;;;;;;48.72;25.17;;;10.70;99.90;;;;;;4997092;28;20418;-93
2023/04/16 21:00:55;;;;;;;45.35;24.35;;;10.70;99.90;;;;;;4999164;28;20038;-93
2023/04/16 21:03:20;;;;;;;46.83;25.15;;;10.70;99.90;;;;;;4987775;28;20023;-92
2023/04/16 21:05:48;;;;;;;43.83;22.63;;;10.70;99.90;;;;;;4993949;28;20103;-92
2023/04/16 21:08:18;;;;;;;48.28;25.25;;;10.70;99.90;;;;;;4993983;28;20035;-93
2023/04/16 21:10:44;;;;;;;42.25;24.42;;;10.80;99.90;;;;;;4995070;28;20084;-92
2023/04/16 21:13:10;;;;;;;45.47;24.73;;;10.70;99.90;;;;;;5002790;28;20034;-92
2023/04/16 21:15:43;;;;;;;41.95;24.48;;;10.70;99.90;;;;;;4995935;28;20022;-93
2023/04/16 21:18:17;;;;;;;45.72;24.85;;;10.70;99.90;;;;;;5018923;28;20486;-94
2023/04/16 21:21:01;;;;;;;49.45;26.33;;;11.40;99.90;;;;;;5002162;28;20042;-94
2023/04/16 21:23:30;;;;;;;47.30;26.60;;;11.80;99.90;;;;;;5059997;22;20065;-93
2023/04/16 21:25:56;;;;;;;44.80;26.92;;;10.60;99.90;;;;;;4974045;28;20038;-93
2023/04/16 21:28:21;;;;;;;46.70;26.38;;;11.70;99.90;;;;;;4974701;28;20026;-94
2023/04/16 21:30:57;;;;;;;42.80;26.80;;;10.70;99.90;;;;;;4974678;28;20033;-92
2023/04/16 21:33:22;;;;;;;40.03;26.42;;;10.70;99.90;;;;;;4974065;28;20075;-91
2023/04/16 21:36:06;;;;;;;45.08;25.48;;;11.60;99.90;;;;;;4982177;28;20395;-93
2023/04/16 21:38:35;;;;;;;44.28;25.63;;;10.60;99.90;;;;;;4977053;28;20064;-91
2023/04/16 21:41:06;;;;;;;45.20;27.48;;;11.80;99.90;;;;;;4975114;28;20034;-93
2023/04/16 21:43:32;;;;;;;36.67;25.75;;;9.90;99.90;;;;;;4972430;28;20033;-91
2023/04/16 21:45:58;;;;;;;45.95;27.48;;;11.50;99.90;;;;;;4979468;28;20011;-93
2023/04/16 21:48:24;;;;;;;39.55;25.95;;;11.70;99.90;;;;;;4981697;28;20037;-90
2023/04/16 21:51:11;;;;;;;38.67;26.55;;;11.90;99.90;;;;;;4972584;28;20106;-89
2023/04/16 21:53:37;;;;;;;37.75;25.10;;;11.80;99.90;;;;;;4971482;28;20027;-90
2023/04/16 21:56:03;;;;;;;38.70;25.83;;;10.70;99.90;;;;;;4973322;28;20030;-92
2023/04/16 21:58:29;;;;;;;47.95;27.60;;;10.60;99.90;;;;;;4973604;28;20023;-91
2023/04/16 22:00:55;;;;;;;44.03;27.13;;;10.70;99.90;;;;;;4973151;28;20038;-92
2023/04/16 22:03:24;;;;;;;38.80;25.73;;;10.60;99.90;;;;;;4972967;28;20474;-91
2023/04/16 22:05:55;;;;;;;45.07;27.70;;;10.70;99.90;;;;;;4972956;28;20034;-91
2023/04/16 22:08:30;;;;;;;39.30;26.83;;;11.70;99.90;;;;;;4972097;28;20504;-92
2023/04/16 22:11:02;;;;;;;44.10;27.58;;;11.40;99.90;;;;;;4973023;28;20034;-92
2023/04/16 22:13:31;;;;;;;46.10;25.75;;;10.50;99.90;;;;;;4971977;28;20097;-92
2023/04/16 22:15:57;;;;;;;37.15;25.20;;;11.40;99.90;;;;;;4956525;28;20537;-92
2023/04/16 22:18:25;;;;;;;39.22;24.15;;;11.90;99.90;;;;;;4973924;28;20027;-91
2023/04/16 22:20:53;;;;;;;39.38;25.92;;;10.70;99.90;;;;;;4975040;28;20027;-92
2023/04/16 22:23:22;;;;;;;41.05;26.00;;;11.40;99.90;;;;;;4973680;28;20050;-91
2023/04/16 22:25:47;;;;;;;38.15;24.42;;;11.30;99.90;;;;;;4974439;28;20031;-93
2023/04/16 22:28:13;;;;;;;40.50;26.23;;;10.30;99.90;;;;;;4973349;28;20027;-92
2023/04/16 22:30:39;;;;;;;41.05;24.58;;;11.70;99.90;;;;;;4974513;28;20027;-93
2023/04/16 22:33:04;;;;;;;42.65;25.63;;;11.10;99.90;;;;;;4974401;28;20030;-91
2023/04/16 22:35:30;;;;;;;42.63;25.20;;;10.30;99.90;;;;;;4974200;28;20114;-93
2023/04/16 22:37:55;;;;;;;35.78;25.75;;;11.50;99.90;;;;;;4974650;28;20113;-91
2023/04/16 22:40:21;;;;;;;37.05;24.80;;;11.50;99.90;;;;;;4983043;28;20026;-91
2023/04/16 22:42:47;;;;;;;35.53;24.75;;;10.90;99.90;;;;;;4966645;28;20119;-92
2023/04/16 22:45:12;;;;;;;38.65;25.80;;;10.40;99.90;;;;;;4975055;28;20030;-91
2023/04/16 22:47:38;;;;;;;40.55;24.77;;;10.50;99.90;;;;;;4974097;28;20058;-91
2023/04/16 22:50:05;;;;;;;32.30;23.10;;;11.30;99.90;;;;;;4973777;28;20101;-92